Time;durP1;ratioP1;P1;durP2;ratioP2;P2;SDS_P1;SDS_P2;PMS_P1;PMS_P2;Temp;Humidity;BMP_temperature;BMP_pressure;BME280_temperature;BME280_humidity;BME280_pressure;Samples;Min_cycle;Max_cycle;Signal;HPM_P1;HPM_P2
2022/04/28 00:00:55;;;;;;;6.90;4.18;;;10.50;99.90;;;;;;5095912;28;20067;-86
2022/04/28 00:03:21;;;;;;;6.65;3.95;;;10.40;99.90;;;;;;5096238;28;20052;-86
2022/04/28 00:05:46;;;;;;;7.97;4.20;;;10.20;99.90;;;;;;5095721;28;20073;-86
2022/04/28 00:08:13;;;;;;;6.10;4.30;;;10.20;99.90;;;;;;5096267;28;20063;-86
2022/04/28 00:10:39;;;;;;;5.93;4.25;;;10.10;99.90;;;;;;5095531;28;20032;-86
2022/04/28 00:13:07;;;;;;;5.93;4.13;;;10.10;99.90;;;;;;5096058;28;20036;-86
2022/04/28 00:15:32;;;;;;;6.05;4.43;;;10.10;99.90;;;;;;5095191;28;20020;-85
2022/04/28 00:17:58;;;;;;;9.45;5.03;;;10.10;99.90;;;;;;5096674;28;20028;-85
2022/04/28 00:20:24;;;;;;;8.13;4.68;;;10.10;99.90;;;;;;5095719;28;20363;-85
2022/04/28 00:22:50;;;;;;;6.30;4.05;;;10.00;99.90;;;;;;5095241;28;20058;-85
2022/04/28 00:25:16;;;;;;;6.35;4.65;;;10.00;99.90;;;;;;5095350;28;20059;-85
2022/04/28 00:27:41;;;;;;;6.13;4.55;;;10.00;99.90;;;;;;5096128;28;20035;-86
2022/04/28 00:30:08;;;;;;;6.97;5.05;;;10.00;99.90;;;;;;5095640;28;20031;-88
2022/04/28 00:32:34;;;;;;;7.25;4.78;;;9.90;99.90;;;;;;5096138;28;20024;-84
2022/04/28 00:35:00;;;;;;;8.90;4.93;;;9.90;99.90;;;;;;5095449;28;20111;-84
2022/04/28 00:37:26;;;;;;;9.23;4.88;;;9.90;99.90;;;;;;5095518;28;20051;-85
2022/04/28 00:39:52;;;;;;;8.07;4.80;;;9.80;99.90;;;;;;5095222;28;20031;-86
2022/04/28 00:42:19;;;;;;;7.53;4.70;;;9.80;99.90;;;;;;5096566;28;20039;-86
2022/04/28 00:44:45;;;;;;;8.00;5.30;;;9.80;99.90;;;;;;5094854;28;20055;-86
2022/04/28 00:47:11;;;;;;;7.15;4.63;;;9.80;99.90;;;;;;5096177;28;20030;-86
2022/04/28 00:52:23;;;;;;;7.13;4.45;;;9.70;99.90;;;;;;5096254;28;20039;-86
2022/04/28 00:54:52;;;;;;;6.75;4.65;;;9.70;99.90;;;;;;5094968;28;20020;-87
2022/04/28 00:57:18;;;;;;;5.45;4.13;;;9.80;99.90;;;;;;5094982;28;20027;-87
2022/04/28 00:59:46;;;;;;;9.50;5.00;;;9.80;99.90;;;;;;5093942;28;20093;-86
2022/04/28 01:02:13;;;;;;;7.40;4.30;;;9.70;99.90;;;;;;5094653;28;20062;-86
2022/04/28 01:04:39;;;;;;;7.70;4.55;;;9.70;99.90;;;;;;5095418;28;20486;-86
2022/04/28 01:07:05;;;;;;;8.13;4.05;;;9.60;99.90;;;;;;5095703;28;20028;-86
2022/04/28 01:09:38;;;;;;;6.78;4.78;;;9.60;99.90;;;;;;5095065;28;20035;-86
2022/04/28 01:12:10;;;;;;;7.20;4.38;;;9.50;99.90;;;;;;5094871;28;20185;-88
2022/04/28 01:14:36;;;;;;;6.65;4.18;;;9.40;99.90;;;;;;5095319;28;20024;-86
2022/04/28 01:17:03;;;;;;;8.55;4.13;;;9.40;99.90;;;;;;5094680;28;20039;-86
2022/04/28 01:19:28;;;;;;;5.82;3.85;;;9.30;99.90;;;;;;5094347;28;20029;-86
2022/04/28 01:21:56;;;;;;;6.72;4.28;;;9.30;99.90;;;;;;5094003;28;20032;-85
2022/04/28 01:24:22;;;;;;;5.90;4.40;;;9.20;99.90;;;;;;5094517;28;20024;-85
2022/04/28 01:26:49;;;;;;;5.88;4.20;;;9.30;99.90;;;;;;5093840;28;20093;-86
2022/04/28 01:29:15;;;;;;;7.57;4.50;;;9.20;99.90;;;;;;5094284;28;20025;-85
2022/04/28 01:31:41;;;;;;;5.70;4.43;;;9.10;99.90;;;;;;5093994;28;20034;-85
2022/04/28 01:34:06;;;;;;;6.13;4.28;;;9.00;99.90;;;;;;5095088;28;20028;-85
2022/04/28 01:36:32;;;;;;;6.45;4.28;;;9.10;99.90;;;;;;5094899;28;20055;-86
2022/04/28 01:38:57;;;;;;;8.77;4.28;;;9.10;99.90;;;;;;5094478;28;20115;-85
2022/04/28 01:41:23;;;;;;;7.43;4.70;;;9.10;99.90;;;;;;5095075;28;20118;-85
2022/04/28 01:43:49;;;;;;;7.40;4.72;;;9.00;99.90;;;;;;5093228;28;20107;-86
2022/04/28 01:46:15;;;;;;;7.35;4.90;;;9.00;99.90;;;;;;5094302;28;20024;-85
2022/04/28 01:48:41;;;;;;;7.60;4.40;;;8.90;99.90;;;;;;5094765;28;20060;-85
2022/04/28 01:56:34;;;;;;;7.60;4.63;;;8.90;99.90;;;;;;5094313;28;20492;-87
2022/04/28 01:59:00;;;;;;;7.85;5.05;;;8.90;99.90;;;;;;5094762;28;20044;-87
2022/04/28 02:01:25;;;;;;;6.30;5.10;;;8.90;99.90;;;;;;5093719;28;20575;-87
2022/04/28 02:03:51;;;;;;;8.50;4.68;;;8.90;99.90;;;;;;5094670;28;20235;-89
2022/04/28 02:06:17;;;;;;;6.80;4.55;;;8.90;99.90;;;;;;5094807;28;20107;-89
2022/04/28 02:08:45;;;;;;;6.35;4.65;;;8.90;99.90;;;;;;5093256;28;20030;-86
2022/04/28 02:11:10;;;;;;;7.20;4.82;;;8.90;99.90;;;;;;5093693;28;20028;-86
2022/04/28 02:13:36;;;;;;;7.63;4.53;;;8.80;99.90;;;;;;5092878;28;20050;-87
2022/04/28 02:16:02;;;;;;;6.95;4.30;;;8.70;99.90;;;;;;5094473;28;20038;-85
2022/04/28 02:18:27;;;;;;;5.80;4.40;;;8.80;99.90;;;;;;5093446;28;20047;-86
2022/04/28 02:20:53;;;;;;;7.57;4.88;;;8.80;99.90;;;;;;5093161;28;20036;-87
2022/04/28 02:23:19;;;;;;;6.55;4.57;;;8.70;99.90;;;;;;5093133;28;20051;-86
2022/04/28 02:25:45;;;;;;;9.27;4.55;;;8.60;99.90;;;;;;5093646;28;20453;-86
2022/04/28 02:28:10;;;;;;;6.85;4.82;;;8.70;99.90;;;;;;5093711;28;20117;-86
2022/04/28 02:30:36;;;;;;;7.20;4.90;;;8.60;99.90;;;;;;5093641;28;20039;-86
2022/04/28 02:33:10;;;;;;;7.82;5.03;;;8.70;99.90;;;;;;5094420;28;20476;-85
2022/04/28 02:35:40;;;;;;;8.95;5.13;;;8.60;99.90;;;;;;5092526;28;20024;-86
2022/04/28 02:38:06;;;;;;;7.78;5.07;;;8.60;99.90;;;;;;5090074;28;20024;-86
2022/04/28 02:40:32;;;;;;;7.55;5.05;;;8.60;99.90;;;;;;5092675;28;20032;-85
2022/04/28 02:42:59;;;;;;;7.50;5.45;;;8.60;99.90;;;;;;5093678;28;20034;-86
2022/04/28 02:45:25;;;;;;;10.77;6.00;;;8.60;99.90;;;;;;5094411;28;20522;-86
2022/04/28 02:47:51;;;;;;;9.13;5.30;;;8.60;99.90;;;;;;5093520;28;20111;-87
2022/04/28 02:50:17;;;;;;;9.13;5.38;;;8.60;99.90;;;;;;5093366;28;20058;-88
2022/04/28 02:52:43;;;;;;;8.20;5.63;;;8.60;99.90;;;;;;5092614;28;20098;-87
2022/04/28 02:55:09;;;;;;;10.60;5.65;;;8.50;99.90;;;;;;5095307;28;20114;-87
2022/04/28 02:57:35;;;;;;;8.02;5.38;;;8.50;99.90;;;;;;5096898;28;20028;-89
2022/04/28 03:00:04;;;;;;;8.43;5.65;;;8.60;99.90;;;;;;5098442;28;20496;-87
2022/04/28 03:02:30;;;;;;;8.95;5.32;;;8.50;99.90;;;;;;5097260;28;20063;-87
2022/04/28 03:04:57;;;;;;;8.30;5.32;;;8.50;99.90;;;;;;5096260;28;20039;-87
2022/04/28 03:12:51;;;;;;;10.93;6.05;;;8.50;99.90;;;;;;5097892;28;20085;-88
2022/04/28 03:15:17;;;;;;;8.00;5.57;;;8.40;99.90;;;;;;5097447;28;20031;-88
2022/04/28 03:17:43;;;;;;;7.90;5.93;;;8.40;99.90;;;;;;5096638;28;20556;-88
2022/04/28 03:20:09;;;;;;;8.10;5.57;;;8.40;99.90;;;;;;5097911;28;20054;-87
2022/04/28 03:22:36;;;;;;;9.77;5.93;;;8.40;99.90;;;;;;5097561;28;20472;-87
2022/04/28 03:25:05;;;;;;;9.93;6.05;;;8.30;99.90;;;;;;5097436;28;20024;-88
2022/04/28 03:27:34;;;;;;;9.63;5.65;;;8.20;99.90;;;;;;5097170;28;20032;-88
2022/04/28 03:29:59;;;;;;;9.93;6.20;;;8.30;99.90;;;;;;5096192;28;20484;-87
2022/04/28 03:32:25;;;;;;;10.55;5.80;;;8.30;99.90;;;;;;5096391;28;20028;-88
2022/04/28 03:34:51;;;;;;;12.93;6.05;;;8.30;99.90;;;;;;5096340;28;20434;-87
2022/04/28 03:37:16;;;;;;;8.88;5.93;;;8.30;99.90;;;;;;5098005;28;20077;-88
2022/04/28 03:39:42;;;;;;;9.88;6.20;;;8.30;99.90;;;;;;5097002;28;20031;-88
2022/04/28 03:42:07;;;;;;;8.80;5.82;;;8.30;99.90;;;;;;5096499;28;20388;-87
2022/04/28 03:44:37;;;;;;;8.52;6.13;;;8.20;99.90;;;;;;5096170;28;20028;-88
2022/04/28 03:47:03;;;;;;;9.98;6.38;;;8.20;99.90;;;;;;5095764;28;20070;-87
2022/04/28 03:49:29;;;;;;;8.38;5.40;;;8.20;99.90;;;;;;5096501;28;20031;-85
2022/04/28 03:51:54;;;;;;;9.27;5.68;;;8.10;99.90;;;;;;5095843;28;20173;-87
2022/04/28 03:54:21;;;;;;;10.98;6.38;;;8.20;99.90;;;;;;5096297;28;20033;-87
2022/04/28 03:56:47;;;;;;;8.70;5.50;;;8.20;99.90;;;;;;5095586;28;20028;-86
2022/04/28 03:59:12;;;;;;;9.20;5.95;;;8.10;99.90;;;;;;5095998;28;20048;-86
2022/04/28 04:01:38;;;;;;;9.95;6.43;;;8.10;99.90;;;;;;5096148;28;20028;-84
2022/04/28 04:04:04;;;;;;;8.05;5.93;;;8.00;99.90;;;;;;5096742;28;20039;-85
2022/04/28 04:06:31;;;;;;;10.00;6.13;;;8.10;99.90;;;;;;5096451;28;20020;-84
2022/04/28 04:08:56;;;;;;;10.52;7.05;;;8.10;99.90;;;;;;5095656;28;20028;-89
2022/04/28 04:11:22;;;;;;;11.65;6.60;;;8.10;99.90;;;;;;5095815;28;20436;-89
2022/04/28 04:13:48;;;;;;;10.88;5.93;;;8.20;99.90;;;;;;5095707;28;20470;-86
2022/04/28 04:16:13;;;;;;;10.10;6.57;;;8.20;99.90;;;;;;5095425;28;20484;-85
2022/04/28 04:18:39;;;;;;;9.35;6.30;;;8.20;99.90;;;;;;5095895;28;20119;-85
2022/04/28 04:21:05;;;;;;;11.93;6.55;;;8.20;99.90;;;;;;5096523;28;20032;-86
2022/04/28 04:23:31;;;;;;;10.30;6.28;;;8.20;99.90;;;;;;5095805;28;20067;-86
2022/04/28 04:25:58;;;;;;;9.02;5.90;;;8.20;99.90;;;;;;5095503;28;20024;-86
2022/04/28 04:28:23;;;;;;;11.73;7.22;;;8.40;99.90;;;;;;5095960;28;20024;-85
2022/04/28 04:33:35;;;;;;;10.00;6.85;;;8.40;99.90;;;;;;5096664;28;20096;-85
2022/04/28 04:36:01;;;;;;;10.68;5.75;;;8.40;99.90;;;;;;5094893;28;20024;-86
2022/04/28 04:38:28;;;;;;;9.73;5.45;;;8.40;99.90;;;;;;5095351;28;20031;-86
2022/04/28 04:40:53;;;;;;;9.23;5.85;;;8.40;99.90;;;;;;5094846;28;20036;-91
2022/04/28 04:43:19;;;;;;;8.85;5.50;;;8.50;99.90;;;;;;5095503;28;20173;-90
2022/04/28 04:45:44;;;;;;;9.18;5.82;;;8.50;99.90;;;;;;5095076;28;20392;-89
2022/04/28 04:48:11;;;;;;;10.25;5.88;;;8.50;99.90;;;;;;5095450;28;20025;-89
2022/04/28 04:50:37;;;;;;;8.27;5.68;;;8.50;99.90;;;;;;5096410;28;20028;-88
2022/04/28 04:53:06;;;;;;;10.20;5.72;;;8.60;99.90;;;;;;5094651;28;20596;-89
2022/04/28 04:55:33;;;;;;;7.18;5.35;;;8.60;99.90;;;;;;5095066;28;20024;-89
2022/04/28 04:57:59;;;;;;;8.70;5.70;;;8.50;99.90;;;;;;5095594;28;20080;-89
2022/04/28 05:00:24;;;;;;;9.50;5.78;;;8.40;99.90;;;;;;5095011;28;20024;-89
2022/04/28 05:02:50;;;;;;;10.35;5.78;;;8.50;99.90;;;;;;5094183;28;20099;-85
2022/04/28 05:05:16;;;;;;;8.90;5.82;;;8.50;99.90;;;;;;5074648;28;20016;-85
2022/04/28 05:07:42;;;;;;;8.50;6.18;;;8.50;99.90;;;;;;5081661;28;20483;-89
2022/04/28 05:10:09;;;;;;;9.05;5.45;;;8.50;99.90;;;;;;5095587;28;20047;-88
2022/04/28 05:12:34;;;;;;;9.75;5.88;;;8.50;99.90;;;;;;5094800;28;20039;-87
2022/04/28 05:15:00;;;;;;;8.43;5.60;;;8.50;99.90;;;;;;5093649;28;20024;-84
2022/04/28 05:17:26;;;;;;;10.52;6.03;;;8.50;99.90;;;;;;5093460;28;20034;-84
2022/04/28 05:19:51;;;;;;;9.20;5.50;;;8.60;99.90;;;;;;5094687;28;20460;-90
2022/04/28 05:22:17;;;;;;;8.77;5.65;;;8.70;99.90;;;;;;5094343;28;20073;-89
2022/04/28 05:24:43;;;;;;;9.27;5.45;;;8.70;99.90;;;;;;5093702;28;20043;-88
2022/04/28 05:27:08;;;;;;;9.45;6.10;;;8.70;99.90;;;;;;5091516;28;20024;-87
2022/04/28 05:29:34;;;;;;;10.93;6.25;;;8.70;99.90;;;;;;5094909;28;20028;-88
2022/04/28 05:32:00;;;;;;;13.38;6.47;;;8.70;99.90;;;;;;5094444;28;20028;-85
2022/04/28 05:34:25;;;;;;;8.70;6.25;;;8.80;99.90;;;;;;5095346;28;20027;-85
2022/04/28 05:36:51;;;;;;;8.05;5.90;;;8.90;99.90;;;;;;5093819;28;20032;-87
2022/04/28 05:39:17;;;;;;;9.80;5.95;;;8.90;99.90;;;;;;5095131;28;20032;-86
2022/04/28 05:41:43;;;;;;;10.73;6.20;;;8.90;99.90;;;;;;5094316;28;20465;-86
2022/04/28 05:46:53;;;;;;;10.90;6.35;;;9.00;99.90;;;;;;5094595;28;20055;-87
2022/04/28 05:49:19;;;;;;;13.23;6.03;;;9.00;99.90;;;;;;5091177;28;20028;-87
2022/04/28 05:51:45;;;;;;;7.47;5.55;;;9.00;99.90;;;;;;5094473;28;20032;-87
2022/04/28 05:54:10;;;;;;;8.98;6.05;;;9.00;99.90;;;;;;5093713;28;20028;-88
2022/04/28 05:56:36;;;;;;;11.10;6.63;;;9.00;99.90;;;;;;5091270;28;20078;-87
2022/04/28 05:59:02;;;;;;;9.43;6.22;;;9.00;99.90;;;;;;5093606;28;20051;-87
2022/04/28 06:01:29;;;;;;;8.93;6.18;;;9.10;99.90;;;;;;5093488;28;20028;-87
2022/04/28 06:03:54;;;;;;;9.90;6.20;;;9.10;99.90;;;;;;5092923;28;20024;-87
2022/04/28 06:06:21;;;;;;;9.57;6.20;;;9.10;99.90;;;;;;5093809;28;20114;-87
2022/04/28 06:08:46;;;;;;;8.77;6.30;;;9.10;99.90;;;;;;5094742;28;20031;-89
2022/04/28 06:11:12;;;;;;;10.75;6.32;;;9.20;99.90;;;;;;5093442;28;20035;-87
2022/04/28 06:13:38;;;;;;;8.65;6.00;;;9.20;99.90;;;;;;5093755;28;20119;-87
2022/04/28 06:16:04;;;;;;;9.88;6.07;;;9.20;99.90;;;;;;5092918;28;20027;-87
2022/04/28 06:18:30;;;;;;;9.52;6.68;;;9.20;99.90;;;;;;5093537;28;20085;-87
2022/04/28 06:20:55;;;;;;;10.55;6.57;;;9.30;99.90;;;;;;5093214;28;20040;-88
2022/04/28 06:23:21;;;;;;;11.13;5.90;;;9.30;99.90;;;;;;5093677;28;20028;-87
2022/04/28 06:25:47;;;;;;;8.15;5.85;;;9.30;99.90;;;;;;5093261;28;20458;-89
2022/04/28 06:28:15;;;;;;;10.68;6.47;;;9.40;99.90;;;;;;5093052;28;20024;-87
2022/04/28 06:30:41;;;;;;;9.57;6.18;;;9.50;99.90;;;;;;5093083;28;20027;-88
2022/04/28 06:33:08;;;;;;;9.80;6.00;;;9.50;99.90;;;;;;5092254;28;20024;-87
2022/04/28 06:35:34;;;;;;;9.70;6.25;;;9.50;99.90;;;;;;5092933;28;20076;-87
2022/04/28 06:38:03;;;;;;;10.15;6.65;;;9.60;99.90;;;;;;5092445;28;20112;-86
2022/04/28 06:40:29;;;;;;;9.60;5.93;;;9.60;99.90;;;;;;5092393;28;20488;-91
2022/04/28 06:42:55;;;;;;;9.65;6.43;;;9.70;99.90;;;;;;5092161;28;20144;-91
2022/04/28 06:45:21;;;;;;;8.90;5.80;;;9.80;99.90;;;;;;5093294;28;20024;-87
2022/04/28 06:47:46;;;;;;;9.70;6.43;;;9.90;99.90;;;;;;5092574;28;20024;-87
2022/04/28 06:50:12;;;;;;;10.05;5.68;;;10.00;99.90;;;;;;5093222;28;20073;-87
2022/04/28 06:52:39;;;;;;;7.50;5.65;;;10.00;99.90;;;;;;5093779;28;20024;-89
2022/04/28 06:55:07;;;;;;;13.18;6.30;;;10.10;99.90;;;;;;5092596;28;20042;-88
2022/04/28 06:57:32;;;;;;;9.60;6.03;;;10.10;99.90;;;;;;5093089;28;20488;-88
2022/04/28 06:59:58;;;;;;;9.23;6.15;;;10.20;99.90;;;;;;5093805;28;20044;-87
2022/04/28 07:02:24;;;;;;;8.60;5.85;;;10.20;99.90;;;;;;5092510;28;20062;-87
2022/04/28 07:04:50;;;;;;;9.95;5.85;;;10.30;99.90;;;;;;5092968;28;20039;-92
2022/04/28 07:07:16;;;;;;;9.38;6.25;;;10.40;99.90;;;;;;5092661;28;20028;-86
2022/04/28 07:09:42;;;;;;;9.60;6.20;;;10.40;99.90;;;;;;5092851;28;20039;-86
2022/04/28 07:12:08;;;;;;;8.55;5.43;;;10.50;99.90;;;;;;5092472;28;20039;-88
2022/04/28 07:14:34;;;;;;;8.27;5.60;;;10.50;99.90;;;;;;5092136;28;20028;-87
2022/04/28 07:17:00;;;;;;;8.57;5.68;;;10.60;99.90;;;;;;5093005;28;20024;-87
2022/04/28 07:19:25;;;;;;;9.63;5.32;;;10.70;99.90;;;;;;5092592;28;20103;-89
2022/04/28 07:21:52;;;;;;;10.50;5.82;;;10.80;99.90;;;;;;5091684;28;20032;-85
2022/04/28 07:24:18;;;;;;;8.85;5.25;;;10.90;99.90;;;;;;5090865;28;20028;-91
2022/04/28 07:26:43;;;;;;;8.60;4.93;;;10.90;99.90;;;;;;5092117;28;20028;-90
2022/04/28 07:29:09;;;;;;;7.50;5.18;;;11.00;99.90;;;;;;5091323;28;20345;-92
2022/04/28 07:31:36;;;;;;;6.72;4.95;;;11.10;99.90;;;;;;5092035;28;20481;-82
2022/04/28 07:34:02;;;;;;;8.43;5.13;;;11.10;99.90;;;;;;5092061;28;20020;-90
2022/04/28 07:36:28;;;;;;;7.80;5.30;;;11.10;99.90;;;;;;5093311;28;20026;-90
2022/04/28 07:38:54;;;;;;;7.13;5.03;;;11.30;99.90;;;;;;5092515;28;20111;-87
2022/04/28 07:41:20;;;;;;;7.95;4.97;;;11.30;99.90;;;;;;5094646;28;20086;-83
2022/04/28 07:43:45;;;;;;;7.40;4.78;;;11.40;99.90;;;;;;5096127;28;20081;-89
2022/04/28 07:46:11;;;;;;;7.53;5.13;;;11.50;99.90;;;;;;5095467;28;20199;-84
2022/04/28 07:48:37;;;;;;;7.40;4.70;;;11.40;99.90;;;;;;5093751;28;20047;-87
2022/04/28 07:51:03;;;;;;;7.45;4.95;;;11.60;99.90;;;;;;5092901;28;20032;-87
2022/04/28 07:53:31;;;;;;;5.65;4.22;;;11.70;99.90;;;;;;5096275;28;20027;-88
2022/04/28 07:58:55;;;;;;;8.40;4.60;;;11.80;99.90;;;;;;5050358;28;20138;-88
2022/04/28 08:01:20;;;;;;;7.30;4.97;;;12.00;99.90;;;;;;5095471;28;20051;-88
2022/04/28 08:03:46;;;;;;;7.95;4.80;;;12.10;99.90;;;;;;5095000;28;20032;-88
2022/04/28 08:06:13;;;;;;;8.25;4.15;;;12.10;99.90;;;;;;5095502;28;20081;-90
2022/04/28 08:08:39;;;;;;;6.93;4.20;;;12.10;99.90;;;;;;5095080;28;20024;-88
2022/04/28 08:11:05;;;;;;;5.68;4.20;;;12.20;99.90;;;;;;5096461;28;20020;-88
2022/04/28 08:13:32;;;;;;;7.32;4.18;;;12.30;99.90;;;;;;5095919;28;20101;-88
2022/04/28 08:15:58;;;;;;;5.90;4.05;;;12.50;99.90;;;;;;5095342;28;20032;-87
2022/04/28 08:18:29;;;;;;;5.95;4.13;;;12.50;99.90;;;;;;5096592;28;20027;-87
2022/04/28 08:20:54;;;;;;;5.35;3.67;;;12.60;99.90;;;;;;5094320;28;20023;-88
2022/04/28 08:23:20;;;;;;;9.90;3.85;;;12.70;99.90;;;;;;5096448;28;20389;-87
2022/04/28 08:25:46;;;;;;;5.72;4.07;;;12.70;99.90;;;;;;5095045;28;20067;-87
2022/04/28 08:28:12;;;;;;;5.88;3.70;;;12.80;99.90;;;;;;5094530;28;20090;-88
2022/04/28 08:30:38;;;;;;;6.03;3.85;;;12.80;99.90;;;;;;5095000;28;20538;-87
2022/04/28 08:33:05;;;;;;;5.38;3.25;;;12.90;99.90;;;;;;5094355;28;20055;-88
2022/04/28 08:35:31;;;;;;;4.32;3.28;;;13.00;99.90;;;;;;5095013;28;20020;-87
2022/04/28 08:37:57;;;;;;;4.45;3.28;;;12.90;99.90;;;;;;5077791;28;20028;-87
2022/04/28 08:40:24;;;;;;;4.07;2.88;;;12.90;99.90;;;;;;5096294;28;20093;-87
2022/04/28 08:42:50;;;;;;;5.45;3.40;;;13.00;99.90;;;;;;5095004;28;20036;-87
2022/04/28 08:45:19;;;;;;;6.18;3.97;;;13.10;99.90;;;;;;5095674;28;20020;-86
2022/04/28 08:47:47;;;;;;;5.00;3.67;;;13.30;99.90;;;;;;5096797;28;20081;-86
2022/04/28 08:50:13;;;;;;;5.82;3.40;;;13.30;99.90;;;;;;5093682;28;20108;-87
2022/04/28 08:52:40;;;;;;;5.47;3.28;;;13.50;99.90;;;;;;5094422;28;20024;-88
2022/04/28 08:55:06;;;;;;;5.20;3.25;;;13.50;99.90;;;;;;5093833;28;20030;-89
2022/04/28 08:57:34;;;;;;;4.88;3.30;;;13.50;99.90;;;;;;5094505;28;20095;-87
2022/04/28 09:00:00;;;;;;;8.18;3.13;;;13.50;99.90;;;;;;5095441;28;20036;-88
2022/04/28 09:02:29;;;;;;;5.50;3.15;;;13.60;99.90;;;;;;5092599;28;20491;-87
2022/04/28 09:05:03;;;;;;;6.43;3.13;;;13.70;99.90;;;;;;5092787;28;20032;-88
2022/04/28 09:07:38;;;;;;;3.67;2.80;;;13.80;99.70;;;;;;5093686;28;20028;-87
2022/04/28 09:10:26;;;;;;;3.80;2.78;;;14.00;99.60;;;;;;5092961;28;20099;-88
2022/04/28 09:14:09;;;;;;;3.15;2.42;;;14.00;98.90;;;;;;5091154;28;20050;-85
2022/04/28 09:15:50;;;;;;;3.72;2.65;;;13.90;98.30;;;;;;5094870;28;20020;-87
2022/04/28 09:18:17;;;;;;;5.50;2.60;;;14.10;98.90;;;;;;5093828;28;20027;-87
2022/04/28 09:20:44;;;;;;;7.07;2.88;;;14.10;98.80;;;;;;5125428;27;20031;-88
2022/04/28 09:23:11;;;;;;;6.38;2.85;;;14.10;99.20;;;;;;5093511;28;20028;-88
2022/04/28 09:25:39;;;;;;;4.85;2.85;;;14.10;97.40;;;;;;5092580;28;20043;-88
2022/04/28 09:28:06;;;;;;;3.97;2.75;;;14.30;97.80;;;;;;5092343;28;20024;-87
2022/04/28 09:30:41;;;;;;;5.45;2.78;;;14.40;98.00;;;;;;5091937;28;20028;-88
2022/04/28 09:33:14;;;;;;;3.35;2.50;;;14.40;96.60;;;;;;5093349;28;20028;-85
2022/04/28 09:35:51;;;;;;;4.82;2.78;;;14.60;95.10;;;;;;5092538;28;20492;-87
2022/04/28 09:38:17;;;;;;;5.13;2.60;;;14.60;96.10;;;;;;5092654;28;20027;-89
2022/04/28 09:43:32;;;;;;;4.22;2.50;;;14.70;95.90;;;;;;5082892;28;20101;-86
2022/04/28 09:45:58;;;;;;;3.55;2.38;;;14.60;95.20;;;;;;5093737;28;20111;-87
2022/04/28 09:48:31;;;;;;;4.60;2.70;;;14.60;96.10;;;;;;5095064;28;20020;-87
2022/04/28 09:51:07;;;;;;;4.47;2.55;;;14.80;95.40;;;;;;5091898;28;20024;-86
2022/04/28 09:53:35;;;;;;;3.75;2.95;;;14.70;95.30;;;;;;5092963;28;20028;-88
2022/04/28 09:56:02;;;;;;;4.00;2.58;;;15.00;96.80;;;;;;5085027;28;20047;-83
2022/04/28 09:58:29;;;;;;;4.68;2.70;;;15.10;96.10;;;;;;5092976;28;20546;-86
2022/04/28 10:01:01;;;;;;;4.68;2.47;;;15.30;93.50;;;;;;5093356;28;20039;-84
2022/04/28 10:03:29;;;;;;;3.30;2.05;;;15.40;91.80;;;;;;5088356;28;20067;-84
2022/04/28 10:05:57;;;;;;;3.42;1.92;;;15.40;91.20;;;;;;5093256;28;20020;-80
2022/04/28 10:08:25;;;;;;;3.22;2.35;;;15.40;91.20;;;;;;5094602;28;20101;-81
2022/04/28 10:10:54;;;;;;;6.53;2.75;;;15.50;90.30;;;;;;5094492;28;20099;-83
2022/04/28 10:13:21;;;;;;;3.85;2.15;;;15.50;90.70;;;;;;5094141;28;20481;-82
2022/04/28 10:15:55;;;;;;;4.10;2.40;;;15.50;91.50;;;;;;5092434;28;20016;-82
2022/04/28 10:18:25;;;;;;;3.63;2.20;;;15.60;89.70;;;;;;5093210;28;20099;-83
2022/04/28 10:21:00;;;;;;;2.92;2.28;;;15.70;90.40;;;;;;5092659;28;20036;-84
2022/04/28 10:35:07;;;;;;;4.38;2.45;;;16.10;85.50;;;;;;5094093;28;20085;-85
2022/04/28 10:37:40;;;;;;;3.15;2.15;;;16.10;77.30;;;;;;5093336;28;20024;-85
2022/04/28 10:40:13;;;;;;;2.65;1.80;;;16.10;81.10;;;;;;5092017;28;20076;-83
2022/04/28 10:42:39;;;;;;;3.13;2.00;;;16.30;80.10;;;;;;5088454;28;20028;-84
2022/04/28 10:45:19;;;;;;;3.38;2.05;;;16.20;77.20;;;;;;5092009;28;20026;-83
2022/04/28 10:47:45;;;;;;;1.95;1.60;;;16.30;73.90;;;;;;5092402;28;20023;-84
2022/04/28 10:50:29;;;;;;;4.32;2.10;;;16.40;74.00;;;;;;5093113;28;20024;-88
2022/04/28 10:53:00;;;;;;;2.42;1.63;;;16.50;74.30;;;;;;5088212;28;20103;-86
2022/04/28 10:55:33;;;;;;;3.17;1.77;;;16.40;74.40;;;;;;5092884;28;20024;-87
2022/04/28 10:58:27;;;;;;;4.38;1.92;;;16.50;76.60;;;;;;5092813;28;20028;-81
2022/04/28 11:00:58;;;;;;;3.45;1.60;;;16.60;77.20;;;;;;5078562;28;20040;-84
2022/04/28 11:03:51;;;;;;;3.17;1.88;;;16.50;67.90;;;;;;5092212;28;20032;-90
2022/04/28 11:06:37;;;;;;;2.35;1.63;;;16.60;69.70;;;;;;5092034;28;20050;-89
2022/04/28 11:09:04;;;;;;;3.92;1.85;;;16.70;66.20;;;;;;5092230;28;20542;-87
2022/04/28 11:11:47;;;;;;;4.72;2.25;;;16.80;67.60;;;;;;5093326;28;20043;-89
2022/04/28 11:14:15;;;;;;;1.88;1.58;;;16.90;62.60;;;;;;5089115;28;20035;-90
2022/04/28 11:16:41;;;;;;;2.92;1.92;;;16.90;63.90;;;;;;5096238;28;20386;-85
2022/04/28 11:19:08;;;;;;;3.50;2.13;;;17.00;69.00;;;;;;5095272;28;20024;-87
2022/04/28 11:21:43;;;;;;;3.05;2.20;;;17.00;64.30;;;;;;5095287;28;20067;-83
2022/04/28 11:24:08;;;;;;;2.75;2.10;;;17.10;63.90;;;;;;5095533;28;20150;-85
2022/04/28 11:26:36;;;;;;;2.20;1.83;;;17.20;66.00;;;;;;5095734;28;20119;-85
2022/04/28 11:29:07;;;;;;;3.13;2.03;;;17.30;61.90;;;;;;5096310;28;20032;-86
2022/04/28 11:31:33;;;;;;;2.33;2.08;;;17.40;64.70;;;;;;5095892;28;20035;-87
2022/04/28 11:34:00;;;;;;;3.25;2.47;;;17.50;66.70;;;;;;5096043;28;20392;-87
2022/04/28 11:36:28;;;;;;;2.25;1.92;;;17.50;63.20;;;;;;5095916;28;20457;-88
2022/04/28 11:39:00;;;;;;;1.88;1.63;;;17.60;65.40;;;;;;5096016;28;20020;-87
2022/04/28 11:41:33;;;;;;;2.83;1.80;;;17.70;64.70;;;;;;5095709;28;20591;-88
2022/04/28 11:44:07;;;;;;;3.63;1.80;;;17.80;65.60;;;;;;5095858;28;20039;-83
2022/04/28 11:46:42;;;;;;;2.40;1.63;;;17.90;64.50;;;;;;5095626;28;20032;-84
2022/04/28 11:49:08;;;;;;;3.15;1.90;;;17.90;66.40;;;;;;5095086;28;20465;-84
2022/04/28 11:51:34;;;;;;;5.78;2.00;;;17.90;61.60;;;;;;5095641;28;20469;-84
2022/04/28 11:54:02;;;;;;;3.90;1.92;;;18.00;64.90;;;;;;5095567;28;20028;-84
2022/04/28 11:56:31;;;;;;;2.72;2.05;;;17.90;61.90;;;;;;5095495;28;20161;-84
2022/04/28 11:59:00;;;;;;;3.00;1.88;;;17.90;64.20;;;;;;5093722;28;20401;-84
2022/04/28 12:01:29;;;;;;;2.83;1.88;;;18.00;63.90;;;;;;5094814;28;20492;-85
2022/04/28 12:03:57;;;;;;;3.35;1.90;;;18.00;64.10;;;;;;5094701;28;20035;-85
2022/04/28 12:06:24;;;;;;;3.95;2.00;;;18.20;64.00;;;;;;5094490;28;20028;-85
2022/04/28 12:14:22;;;;;;;3.25;1.90;;;18.30;65.10;;;;;;5092537;28;20036;-87
2022/04/28 12:14:31;;;;;;;2.83;2.38;;;18.50;64.50;;;;;;5102709;28;20108;-86
2022/04/28 12:19:56;;;;;;;2.95;1.92;;;19.00;66.60;;;;;;5093713;28;20487;-85
2022/04/28 12:22:29;;;;;;;3.88;2.00;;;19.10;63.90;;;;;;5094245;28;20104;-85
2022/04/28 12:25:00;;;;;;;3.75;2.35;;;19.20;63.40;;;;;;5095162;28;20469;-85
2022/04/28 12:27:35;;;;;;;4.10;2.10;;;19.20;62.10;;;;;;5095128;28;20027;-85
2022/04/28 12:30:07;;;;;;;3.97;2.20;;;19.30;63.80;;;;;;5091721;28;20082;-85
2022/04/28 12:32:56;;;;;;;4.18;2.20;;;19.40;62.20;;;;;;5096034;28;20129;-85
2022/04/28 12:35:27;;;;;;;5.78;1.98;;;19.60;62.70;;;;;;5094152;28;20230;-84
2022/04/28 12:37:55;;;;;;;3.80;2.05;;;19.70;60.90;;;;;;5096451;28;20028;-84
2022/04/28 12:40:21;;;;;;;4.40;2.00;;;19.90;60.70;;;;;;5095326;28;20032;-84
2022/04/28 12:42:48;;;;;;;2.53;2.15;;;20.00;61.20;;;;;;5106239;28;20046;-84
2022/04/28 12:45:16;;;;;;;2.80;2.15;;;20.10;59.10;;;;;;5115641;28;20024;-84
2022/04/28 12:47:43;;;;;;;2.35;1.90;;;20.20;57.90;;;;;;5101989;28;20028;-85
2022/04/28 12:50:23;;;;;;;3.63;2.10;;;20.40;58.10;;;;;;5103303;28;20031;-82
2022/04/28 12:52:51;;;;;;;4.78;2.40;;;20.60;57.30;;;;;;5104067;28;20053;-85
2022/04/28 12:55:21;;;;;;;4.28;1.90;;;20.70;54.60;;;;;;5093990;28;20029;-87
2022/04/28 12:57:48;;;;;;;3.10;1.95;;;20.80;55.40;;;;;;5094326;28;20030;-87
2022/04/28 13:00:14;;;;;;;4.93;2.10;;;21.00;56.10;;;;;;5093873;28;20020;-86
2022/04/28 13:02:47;;;;;;;5.00;2.25;;;21.10;56.60;;;;;;5091336;28;20039;-88
2022/04/28 13:05:15;;;;;;;3.90;2.20;;;21.30;55.20;;;;;;5094216;28;20461;-88
2022/04/28 13:07:44;;;;;;;3.65;2.05;;;21.40;54.40;;;;;;5093870;28;20031;-88
2022/04/28 13:10:15;;;;;;;3.80;1.60;;;21.60;54.90;;;;;;5094466;28;20028;-85
2022/04/28 13:12:41;;;;;;;;;;;21.70;53.90;;;;;;5094679;28;20024;-86
2022/04/28 13:15:07;;;;;;;2.28;1.60;;;22.00;54.30;;;;;;5093589;28;19904;-87
2022/04/28 13:17:33;;;;;;;1.95;1.50;;;22.10;50.20;;;;;;5094871;28;20113;-88
2022/04/28 13:19:58;;;;;;;2.63;1.67;;;22.40;49.90;;;;;;5099188;28;20020;-86
2022/04/28 13:22:24;;;;;;;2.08;1.88;;;22.70;48.40;;;;;;5079252;28;20028;-86
2022/04/28 13:24:50;;;;;;;3.05;1.80;;;23.30;47.80;;;;;;5093996;28;20035;-86
2022/04/28 13:27:16;;;;;;;2.05;1.85;;;23.60;50.00;;;;;;5098176;28;20035;-82
2022/04/28 13:29:42;;;;;;;2.63;1.40;;;24.00;47.80;;;;;;5102797;28;20040;-84
2022/04/28 13:32:08;;;;;;;2.25;1.60;;;24.30;46.60;;;;;;5106093;28;20437;-93
2022/04/28 13:34:35;;;;;;;1.92;1.67;;;24.50;46.40;;;;;;5093495;28;20035;-90